Terminal Aerodrome Forecast
Issued by NWS La Crosse, WI

Home | Current Version | Previous Version | Text Only | Print | Product List | Glossary On
Versions: 1 2 3 4 5 6 7 8 9 10 11 12 13 14 15 16 17 18 19 20 21 22 23 24 25 26 27 28 29 30 31 32 33 34 35 36 37
000
FTUS43 KARX 301720
TAFLSE
TAF
KLSE 301720Z 3018/0118 12005KT P6SM BKN015
     FM301930 11007KT P6SM SCT020 BKN150
     FM010100 13006KT P6SM BKN150
     FM011100 14006KT P6SM VCSH BKN020
     FM011600 15009KT P6SM -SHRA OVC015=

USA.gov is the U.S. government's official web portal to all federal, state and local government web resources and services.